Time;durP1;ratioP1;P1;durP2;ratioP2;P2;SDS_P1;SDS_P2;PMS_P1;PMS_P2;Temp;Humidity;BMP_temperature;BMP_pressure;BME280_temperature;BME280_humidity;BME280_pressure;Samples;Min_cycle;Max_cycle;Signal;HPM_P1;HPM_P2
2023/03/19 00:01:09;;;;;;;7.53;2.22;;;9.00;83.60;;;;;;5058087;28;20430;-65
2023/03/19 00:03:34;;;;;;;8.23;2.25;;;9.10;83.90;;;;;;5045781;28;20029;-65
2023/03/19 00:06:01;;;;;;;5.45;2.08;;;9.10;83.90;;;;;;5048708;28;20053;-65
2023/03/19 00:08:27;;;;;;;7.20;2.20;;;9.10;84.00;;;;;;5066633;28;20306;-65
2023/03/19 00:10:52;;;;;;;8.52;2.83;;;9.10;84.80;;;;;;5019208;28;20036;-66
2023/03/19 00:13:19;;;;;;;5.13;2.10;;;9.00;85.10;;;;;;5054053;28;20032;-66
2023/03/19 00:15:46;;;;;;;5.70;2.22;;;9.00;85.00;;;;;;5055028;28;20024;-66
2023/03/19 00:18:12;;;;;;;6.05;2.28;;;8.90;85.30;;;;;;5055470;28;20021;-65
2023/03/19 00:20:37;;;;;;;5.45;2.08;;;8.90;85.60;;;;;;5050054;28;20388;-65
2023/03/19 00:23:03;;;;;;;4.78;2.00;;;8.90;85.70;;;;;;5054694;28;20112;-66
2023/03/19 00:25:29;;;;;;;5.75;2.13;;;8.90;85.00;;;;;;5055149;28;20055;-65
2023/03/19 00:27:55;;;;;;;7.47;2.17;;;8.90;85.80;;;;;;5044081;28;20051;-66
2023/03/19 00:30:21;;;;;;;6.22;1.95;;;9.00;85.80;;;;;;5036552;28;20095;-66
2023/03/19 00:32:47;;;;;;;5.63;1.77;;;9.00;85.90;;;;;;5055052;28;20047;-65
2023/03/19 00:35:13;;;;;;;4.75;1.67;;;9.00;85.80;;;;;;5055215;28;20029;-65
2023/03/19 00:37:39;;;;;;;5.60;2.22;;;9.10;85.90;;;;;;5034122;28;20025;-65
2023/03/19 00:40:06;;;;;;;5.53;2.42;;;9.10;85.70;;;;;;5054228;28;20061;-65
2023/03/19 00:42:32;;;;;;;6.03;2.40;;;9.10;85.60;;;;;;5049293;28;20126;-65
2023/03/19 00:44:57;;;;;;;8.48;2.08;;;9.10;85.80;;;;;;5060561;28;20033;-66
2023/03/19 00:47:23;;;;;;;5.70;2.10;;;9.20;85.40;;;;;;5049603;28;20040;-64
2023/03/19 00:49:49;;;;;;;5.18;2.15;;;9.20;85.10;;;;;;5045658;28;20414;-64
2023/03/19 00:52:15;;;;;;;4.78;1.90;;;9.20;85.60;;;;;;5049739;28;20432;-65
2023/03/19 00:54:40;;;;;;;5.82;2.25;;;9.20;86.20;;;;;;5060986;28;20032;-66
2023/03/19 00:57:06;;;;;;;5.05;1.85;;;9.30;85.00;;;;;;5059793;28;20071;-65
2023/03/19 00:59:32;;;;;;;5.43;1.85;;;9.50;83.70;;;;;;5051658;28;20033;-66
2023/03/19 01:01:57;;;;;;;5.72;1.90;;;9.60;81.30;;;;;;5049990;28;20072;-65
2023/03/19 01:04:23;;;;;;;5.63;2.08;;;9.60;85.90;;;;;;5065356;28;20028;-66
2023/03/19 01:06:52;;;;;;;7.97;2.40;;;9.50;87.80;;;;;;5068334;28;20029;-65
2023/03/19 01:09:18;;;;;;;7.07;2.35;;;9.40;86.60;;;;;;5043695;28;20333;-65
2023/03/19 01:11:43;;;;;;;10.98;3.22;;;9.30;82.90;;;;;;5053645;28;20025;-65
2023/03/19 01:14:09;;;;;;;8.50;2.60;;;9.50;81.50;;;;;;5039224;28;20033;-65
2023/03/19 01:16:35;;;;;;;6.35;2.80;;;9.70;80.30;;;;;;5041905;28;20036;-66
2023/03/19 01:19:01;;;;;;;5.38;2.70;;;9.90;79.60;;;;;;5060855;28;20029;-65
2023/03/19 01:21:29;;;;;;;6.28;2.92;;;9.90;80.30;;;;;;5063092;28;20084;-65
2023/03/19 01:23:56;;;;;;;7.93;3.00;;;9.90;80.30;;;;;;5062703;28;20060;-65
2023/03/19 01:26:22;;;;;;;7.15;3.30;;;9.80;81.60;;;;;;5066638;28;20028;-65
2023/03/19 01:28:50;;;;;;;9.07;3.17;;;9.70;82.50;;;;;;5033587;28;20371;-65
2023/03/19 01:31:16;;;;;;;7.93;3.03;;;9.50;83.70;;;;;;5044977;28;20036;-65
2023/03/19 01:33:44;;;;;;;9.38;3.30;;;9.30;84.70;;;;;;5062253;28;20100;-64
2023/03/19 01:36:10;;;;;;;9.00;3.28;;;9.30;85.20;;;;;;5064853;28;20025;-64
2023/03/19 01:38:35;;;;;;;6.43;3.35;;;9.30;85.80;;;;;;5053116;28;20029;-63
2023/03/19 01:41:01;;;;;;;8.15;3.45;;;9.30;85.40;;;;;;5061222;28;20040;-64
2023/03/19 01:43:29;;;;;;;6.97;3.58;;;9.30;85.50;;;;;;5058648;28;20047;-64
2023/03/19 01:46:02;;;;;;;7.45;3.17;;;9.40;85.30;;;;;;5052987;28;20025;-66
2023/03/19 01:48:42;;;;;;;7.05;3.13;;;9.50;85.50;;;;;;5066121;28;20368;-65
2023/03/19 01:51:11;;;;;;;6.82;3.70;;;9.50;85.80;;;;;;5069650;28;20029;-64
2023/03/19 01:53:39;;;;;;;7.53;3.08;;;9.40;86.40;;;;;;5068840;28;20442;-65
2023/03/19 01:56:21;;;;;;;9.07;3.30;;;9.40;87.10;;;;;;5045902;28;20382;-66
2023/03/19 01:58:50;;;;;;;8.45;3.30;;;9.50;88.30;;;;;;5063626;28;20040;-66
2023/03/19 02:01:16;;;;;;;7.28;3.60;;;9.30;89.70;;;;;;5061973;28;20452;-66
2023/03/19 02:03:45;;;;;;;6.97;3.03;;;9.10;90.60;;;;;;5063610;28;20104;-65
2023/03/19 02:06:12;;;;;;;7.82;3.45;;;9.00;92.00;;;;;;5056771;28;20321;-66
2023/03/19 02:08:39;;;;;;;10.50;3.85;;;8.80;93.40;;;;;;5063835;28;20028;-68
2023/03/19 02:11:05;;;;;;;8.38;3.55;;;8.80;95.10;;;;;;5033803;28;20032;-68
2023/03/19 02:13:31;;;;;;;10.05;4.00;;;8.50;94.50;;;;;;5024953;28;20045;-68
2023/03/19 02:15:57;;;;;;;8.95;4.15;;;8.20;95.40;;;;;;5049104;28;20382;-68
2023/03/19 02:18:24;;;;;;;8.65;4.70;;;8.00;92.20;;;;;;5049687;28;20410;-68
2023/03/19 02:21:13;;;;;;;7.28;4.03;;;7.90;91.20;;;;;;5035203;28;20123;-67
2023/03/19 02:24:07;;;;;;;11.05;4.72;;;7.80;91.40;;;;;;5057779;28;20021;-68
2023/03/19 02:26:34;;;;;;;9.02;3.78;;;7.80;89.90;;;;;;5046940;28;20147;-67
2023/03/19 02:29:00;;;;;;;11.50;4.85;;;7.80;91.00;;;;;;5037846;28;20084;-67
2023/03/19 02:31:28;;;;;;;10.52;4.97;;;7.80;88.00;;;;;;5038778;28;20065;-67
2023/03/19 02:34:03;;;;;;;7.88;3.97;;;7.80;87.30;;;;;;5051571;28;20498;-67
2023/03/19 02:36:37;;;;;;;7.93;4.55;;;7.80;89.20;;;;;;5055841;28;20067;-67
2023/03/19 02:39:04;;;;;;;;;;;7.80;89.20;;;;;;5057329;28;20017;-67
2023/03/19 02:41:31;;;;;;;8.90;5.28;;;7.70;86.80;;;;;;5048377;28;20693;-66
2023/03/19 02:43:58;;;;;;;9.88;5.68;;;7.70;84.20;;;;;;5068845;28;20421;-67
2023/03/19 02:46:24;;;;;;;8.95;5.38;;;7.80;82.40;;;;;;5055586;28;20025;-67
2023/03/19 02:48:51;;;;;;;18.52;7.32;;;7.70;80.90;;;;;;5032533;28;20120;-65
2023/03/19 02:51:18;;;;;;;10.90;5.30;;;7.70;79.80;;;;;;5058054;28;20036;-66
2023/03/19 02:53:44;;;;;;;11.43;5.25;;;7.70;78.80;;;;;;5072118;28;20024;-67
2023/03/19 02:56:10;;;;;;;12.30;4.63;;;7.70;78.70;;;;;;5051282;28;20388;-66
2023/03/19 02:58:35;;;;;;;8.80;4.90;;;7.70;81.60;;;;;;5069010;28;20052;-66
2023/03/19 03:01:01;;;;;;;14.48;5.97;;;7.70;82.00;;;;;;5065000;28;20102;-66
2023/03/19 03:03:26;;;;;;;10.15;4.75;;;7.70;81.10;;;;;;5070171;28;20029;-65
2023/03/19 03:05:52;;;;;;;10.57;5.00;;;7.60;80.20;;;;;;5050432;28;20018;-66
2023/03/19 03:08:17;;;;;;;11.02;4.80;;;7.60;80.10;;;;;;5054315;28;20516;-66
2023/03/19 03:10:43;;;;;;;9.13;5.28;;;7.60;79.40;;;;;;5070666;28;20024;-65
2023/03/19 03:13:08;;;;;;;12.77;5.68;;;7.50;79.40;;;;;;5053235;28;20108;-66
2023/03/19 03:15:34;;;;;;;7.88;4.78;;;7.50;78.20;;;;;;5050255;28;20377;-65
2023/03/19 03:18:00;;;;;;;8.68;4.90;;;7.50;77.40;;;;;;5059866;28;20309;-66
2023/03/19 03:20:25;;;;;;;9.85;4.47;;;7.50;76.80;;;;;;5053768;28;20025;-65
2023/03/19 03:22:51;;;;;;;9.20;4.68;;;7.50;76.80;;;;;;5048169;28;20029;-65
2023/03/19 03:25:17;;;;;;;8.63;4.43;;;7.50;78.20;;;;;;5048593;28;20025;-65
2023/03/19 03:27:42;;;;;;;8.20;4.43;;;7.50;77.90;;;;;;5045734;28;20067;-67
2023/03/19 03:30:09;;;;;;;10.23;4.57;;;7.50;80.00;;;;;;5055863;28;20079;-66
2023/03/19 03:32:37;;;;;;;8.82;5.07;;;7.40;80.10;;;;;;5057903;28;20032;-65
2023/03/19 03:35:04;;;;;;;7.82;4.30;;;7.40;78.90;;;;;;5060412;28;20444;-66
2023/03/19 03:37:29;;;;;;;7.00;4.13;;;7.40;79.70;;;;;;5041472;28;20038;-66
2023/03/19 03:39:55;;;;;;;9.45;4.10;;;7.40;79.50;;;;;;5051492;28;20484;-66
2023/03/19 03:42:21;;;;;;;9.68;4.72;;;7.40;80.30;;;;;;5055113;28;20029;-65
2023/03/19 03:44:47;;;;;;;8.13;3.88;;;7.40;84.20;;;;;;5060799;28;20421;-66
2023/03/19 03:47:12;;;;;;;8.32;4.35;;;7.40;83.10;;;;;;5055663;28;20027;-65
2023/03/19 03:49:38;;;;;;;8.02;4.50;;;7.40;82.70;;;;;;5055197;28;20036;-66
2023/03/19 03:52:04;;;;;;;7.65;3.80;;;7.40;81.70;;;;;;5045579;28;20159;-66
2023/03/19 03:54:29;;;;;;;6.75;3.65;;;7.40;80.80;;;;;;5060171;28;20016;-66
2023/03/19 03:57:01;;;;;;;6.90;3.38;;;7.40;85.60;;;;;;5049509;28;20072;-66
2023/03/19 03:59:27;;;;;;;7.63;3.70;;;7.40;88.90;;;;;;5053030;28;20040;-67
2023/03/19 04:01:52;;;;;;;8.02;3.22;;;7.40;88.90;;;;;;5045647;28;20045;-66
2023/03/19 04:04:19;;;;;;;8.27;3.63;;;7.50;91.00;;;;;;5053247;28;20041;-66
2023/03/19 04:06:45;;;;;;;11.32;5.03;;;7.50;91.30;;;;;;5059322;28;20031;-66
2023/03/19 04:09:10;;;;;;;7.80;4.35;;;7.40;88.10;;;;;;5049329;28;20024;-66
2023/03/19 04:11:37;;;;;;;17.58;6.30;;;7.40;91.30;;;;;;5044207;28;20318;-66
2023/03/19 04:14:04;;;;;;;8.27;4.80;;;7.40;88.20;;;;;;5043621;28;20025;-66
2023/03/19 04:16:30;;;;;;;9.05;4.60;;;7.40;86.80;;;;;;5054395;28;20321;-67
2023/03/19 04:18:55;;;;;;;10.13;4.55;;;7.40;86.10;;;;;;5049794;28;20033;-66
2023/03/19 04:21:21;;;;;;;7.38;3.50;;;7.50;87.50;;;;;;5050246;28;20330;-66
2023/03/19 04:23:46;;;;;;;7.28;4.10;;;7.40;91.90;;;;;;5040863;28;20475;-66
2023/03/19 04:26:12;;;;;;;9.07;4.28;;;7.40;89.30;;;;;;5042515;28;20091;-66
2023/03/19 04:28:38;;;;;;;10.63;4.35;;;7.40;88.50;;;;;;5050430;28;20029;-65
2023/03/19 04:31:08;;;;;;;6.95;3.60;;;7.40;88.50;;;;;;5044753;28;20032;-65
2023/03/19 04:33:34;;;;;;;11.07;2.97;;;7.40;93.40;;;;;;5036466;28;20033;-65
2023/03/19 04:36:01;;;;;;;9.25;3.50;;;7.50;97.70;;;;;;5052746;28;20111;-64
2023/03/19 04:38:27;;;;;;;6.85;3.30;;;7.60;95.90;;;;;;5045352;28;20087;-66
2023/03/19 04:40:55;;;;;;;5.63;3.20;;;7.60;96.60;;;;;;5054894;28;20113;-66
2023/03/19 04:43:23;;;;;;;7.13;2.90;;;7.60;95.80;;;;;;5046636;28;20020;-66
2023/03/19 04:45:49;;;;;;;6.68;3.10;;;7.60;96.00;;;;;;5046409;28;20021;-66
2023/03/19 04:48:17;;;;;;;7.60;2.78;;;7.60;96.70;;;;;;5061535;28;20128;-67
2023/03/19 04:50:44;;;;;;;8.43;3.17;;;7.60;96.40;;;;;;5054227;28;20033;-66
2023/03/19 04:53:10;;;;;;;7.78;3.47;;;7.60;96.00;;;;;;5038868;28;20036;-66
2023/03/19 04:55:36;;;;;;;6.88;2.90;;;7.70;97.10;;;;;;5052638;28;20309;-66
2023/03/19 04:58:01;;;;;;;5.40;2.75;;;7.70;98.00;;;;;;5048231;28;20025;-66
2023/03/19 05:00:29;;;;;;;7.28;2.65;;;7.70;98.00;;;;;;5046054;28;20033;-66
2023/03/19 05:02:55;;;;;;;6.72;2.72;;;7.80;98.00;;;;;;5048660;28;20031;-66
2023/03/19 05:05:25;;;;;;;5.75;2.53;;;7.80;98.00;;;;;;5048821;28;20133;-67
2023/03/19 05:07:50;;;;;;;6.10;2.42;;;7.90;98.00;;;;;;5055125;28;20017;-66
2023/03/19 05:10:16;;;;;;;6.00;2.58;;;7.90;98.00;;;;;;5057089;28;20048;-66
2023/03/19 05:12:42;;;;;;;9.50;3.03;;;8.00;97.50;;;;;;5044696;28;20033;-66
2023/03/19 05:15:08;;;;;;;6.10;2.72;;;7.90;96.00;;;;;;5047559;28;20418;-66
2023/03/19 05:17:34;;;;;;;6.53;2.60;;;7.90;97.70;;;;;;5040548;28;20030;-66
2023/03/19 05:20:01;;;;;;;7.40;2.63;;;7.90;96.80;;;;;;5052930;28;20032;-66
2023/03/19 05:22:27;;;;;;;5.30;2.80;;;7.90;96.90;;;;;;5043861;28;20029;-66
2023/03/19 05:24:53;;;;;;;8.57;3.13;;;7.80;94.70;;;;;;5048052;28;20368;-66
2023/03/19 05:27:19;;;;;;;7.47;3.05;;;7.80;94.60;;;;;;5045520;28;20025;-66
2023/03/19 05:29:45;;;;;;;9.57;2.60;;;7.80;95.70;;;;;;5050134;28;20029;-66
2023/03/19 05:32:11;;;;;;;6.10;2.78;;;7.90;97.60;;;;;;5046880;28;20078;-66
2023/03/19 05:34:37;;;;;;;6.13;3.08;;;7.90;97.70;;;;;;5058283;28;20302;-65
2023/03/19 05:37:02;;;;;;;7.60;2.45;;;8.00;97.00;;;;;;5043002;28;20167;-66
2023/03/19 05:39:28;;;;;;;9.45;3.85;;;8.00;97.60;;;;;;5050089;28;20029;-66
2023/03/19 05:41:54;;;;;;;6.07;2.47;;;8.10;98.00;;;;;;5043589;28;20028;-66
2023/03/19 05:44:20;;;;;;;7.35;2.38;;;8.20;98.00;;;;;;5054189;28;20056;-66
2023/03/19 05:46:45;;;;;;;6.22;2.50;;;8.30;98.00;;;;;;5056042;28;20017;-66
2023/03/19 05:49:11;;;;;;;6.07;2.42;;;8.40;98.00;;;;;;5056824;28;20025;-67
2023/03/19 05:51:37;;;;;;;4.28;2.03;;;8.60;97.60;;;;;;5062689;28;20031;-66
2023/03/19 05:54:03;;;;;;;7.00;2.47;;;8.80;97.10;;;;;;5051629;28;20020;-66
2023/03/19 05:56:28;;;;;;;6.70;2.70;;;8.80;97.30;;;;;;5042951;28;20079;-66
2023/03/19 05:58:54;;;;;;;7.40;2.60;;;8.90;97.30;;;;;;5049605;28;20025;-66
2023/03/19 06:01:20;;;;;;;5.68;2.42;;;9.00;96.60;;;;;;5041227;28;20322;-67
2023/03/19 06:03:46;;;;;;;5.25;2.40;;;9.00;97.00;;;;;;5056624;28;20021;-66
2023/03/19 06:06:11;;;;;;;5.75;2.17;;;9.00;96.90;;;;;;5064256;28;20033;-66
2023/03/19 06:08:37;;;;;;;5.95;2.50;;;9.10;96.30;;;;;;5047706;28;20021;-65
2023/03/19 06:11:03;;;;;;;5.63;2.40;;;9.10;97.10;;;;;;5049906;28;20104;-66
2023/03/19 06:13:29;;;;;;;5.35;2.40;;;9.00;98.00;;;;;;5057736;28;20029;-66
2023/03/19 06:15:55;;;;;;;4.88;2.08;;;9.10;96.80;;;;;;5056851;28;20024;-66
2023/03/19 06:18:21;;;;;;;5.10;2.10;;;9.10;97.00;;;;;;5057776;28;20036;-66
2023/03/19 06:20:47;;;;;;;6.38;2.45;;;9.20;96.70;;;;;;5053839;28;20032;-65
2023/03/19 06:23:13;;;;;;;9.07;2.28;;;9.30;95.90;;;;;;5053482;28;20075;-66
2023/03/19 06:25:39;;;;;;;6.18;2.28;;;9.40;95.40;;;;;;5057963;28;20029;-66
2023/03/19 06:28:05;;;;;;;7.22;2.10;;;9.40;95.00;;;;;;5051717;28;20056;-66
2023/03/19 06:30:31;;;;;;;4.57;2.05;;;9.50;94.90;;;;;;5038796;28;20082;-65
2023/03/19 06:32:57;;;;;;;7.10;2.38;;;9.60;94.70;;;;;;5040044;28;20032;-66
2023/03/19 06:35:23;;;;;;;6.40;2.45;;;9.60;94.70;;;;;;5058409;28;20021;-66
2023/03/19 06:37:49;;;;;;;4.30;2.08;;;9.60;94.60;;;;;;5042700;28;20037;-66
2023/03/19 06:40:15;;;;;;;4.85;2.50;;;9.60;95.00;;;;;;5039093;28;20026;-66
2023/03/19 06:42:45;;;;;;;4.78;2.15;;;9.50;94.90;;;;;;5054313;28;20029;-66
2023/03/19 06:45:11;;;;;;;8.55;2.67;;;9.40;94.90;;;;;;5065922;28;20350;-66
2023/03/19 06:47:39;;;;;;;8.55;2.72;;;9.40;95.70;;;;;;5073202;28;20066;-65
2023/03/19 06:50:05;;;;;;;5.47;2.17;;;9.40;96.20;;;;;;5042681;28;20039;-66
2023/03/19 06:52:30;;;;;;;9.05;2.70;;;9.40;96.20;;;;;;5046470;28;20025;-66
2023/03/19 06:54:56;;;;;;;6.75;2.40;;;9.40;96.20;;;;;;5060486;28;20073;-66
2023/03/19 06:57:21;;;;;;;7.85;2.60;;;9.40;95.90;;;;;;5054265;28;20051;-66
2023/03/19 06:59:47;;;;;;;6.93;2.25;;;9.40;96.10;;;;;;5055790;28;20055;-66
2023/03/19 07:02:13;;;;;;;7.88;2.78;;;9.50;96.50;;;;;;5038730;28;20052;-66
2023/03/19 07:04:38;;;;;;;7.10;2.67;;;9.60;95.90;;;;;;5045686;28;20151;-66
2023/03/19 07:07:04;;;;;;;5.95;2.50;;;9.60;95.70;;;;;;5034708;28;20381;-66
2023/03/19 07:09:30;;;;;;;4.72;2.40;;;9.70;95.10;;;;;;5024929;28;20028;-66
2023/03/19 07:11:56;;;;;;;6.55;2.83;;;9.70;95.40;;;;;;5034075;28;20041;-66
2023/03/19 07:14:23;;;;;;;5.32;2.35;;;9.90;94.70;;;;;;5049087;28;20483;-67
2023/03/19 07:16:48;;;;;;;7.18;2.72;;;9.90;95.00;;;;;;5037836;28;20334;-66
2023/03/19 07:19:17;;;;;;;6.00;2.28;;;10.10;93.10;;;;;;5042217;28;20029;-66
2023/03/19 07:21:45;;;;;;;5.32;2.60;;;10.20;92.20;;;;;;5038246;28;20341;-65
2023/03/19 07:24:14;;;;;;;6.38;2.67;;;10.40;91.70;;;;;;5035933;28;20393;-65
2023/03/19 07:26:41;;;;;;;6.82;2.25;;;10.60;90.90;;;;;;5045137;28;20021;-64
2023/03/19 07:29:07;;;;;;;5.15;2.10;;;10.70;90.50;;;;;;5040066;28;20017;-64
2023/03/19 07:31:32;;;;;;;8.32;2.30;;;10.80;90.50;;;;;;5031076;28;20036;-64
2023/03/19 07:33:58;;;;;;;6.13;2.13;;;10.80;89.80;;;;;;5028262;28;20025;-66
2023/03/19 07:36:23;;;;;;;7.13;2.40;;;10.90;89.90;;;;;;5045009;28;20034;-67
2023/03/19 07:38:49;;;;;;;7.65;2.50;;;11.00;88.70;;;;;;5034919;28;20030;-67
2023/03/19 07:41:15;;;;;;;5.80;2.30;;;11.00;88.80;;;;;;5043621;28;20437;-67
2023/03/19 07:43:41;;;;;;;6.32;2.22;;;11.00;89.50;;;;;;5031689;28;20025;-66
2023/03/19 07:46:10;;;;;;;5.30;2.30;;;11.10;88.70;;;;;;5022881;28;20025;-67
2023/03/19 07:48:35;;;;;;;5.20;2.13;;;11.20;88.60;;;;;;5029307;28;20017;-67
2023/03/19 07:51:01;;;;;;;5.85;2.40;;;11.20;88.20;;;;;;5033682;28;20151;-66
2023/03/19 07:53:28;;;;;;;7.38;2.30;;;11.40;88.20;;;;;;5020321;28;20048;-66
2023/03/19 07:55:53;;;;;;;7.40;2.30;;;11.50;87.70;;;;;;5021073;28;20037;-66
2023/03/19 07:58:22;;;;;;;5.75;2.00;;;11.60;86.20;;;;;;5034599;28;20551;-66
2023/03/19 08:00:48;;;;;;;6.50;2.63;;;11.50;87.60;;;;;;5043323;28;20033;-67
2023/03/19 08:03:14;;;;;;;7.15;2.40;;;11.70;87.60;;;;;;5056020;28;20326;-66
2023/03/19 08:05:39;;;;;;;5.97;2.22;;;11.90;86.40;;;;;;5053724;28;20421;-67
2023/03/19 08:08:05;;;;;;;5.50;2.30;;;12.10;87.10;;;;;;5060272;28;20024;-66
2023/03/19 08:10:30;;;;;;;4.38;2.13;;;12.20;85.60;;;;;;5049231;28;20371;-67
2023/03/19 08:12:56;;;;;;;7.57;2.28;;;12.40;85.30;;;;;;5052592;28;20029;-66
2023/03/19 08:15:22;;;;;;;5.55;1.80;;;12.70;84.40;;;;;;5048401;28;20067;-66
2023/03/19 08:17:47;;;;;;;5.40;2.13;;;12.80;84.40;;;;;;5044784;28;20075;-66
2023/03/19 08:20:15;;;;;;;6.13;2.00;;;13.00;84.60;;;;;;5048695;28;20120;-67
2023/03/19 08:22:41;;;;;;;5.45;2.08;;;13.20;84.20;;;;;;5054157;28;20024;-67
2023/03/19 08:25:08;;;;;;;6.07;2.30;;;13.30;83.20;;;;;;5055778;28;20043;-66
2023/03/19 08:27:34;;;;;;;4.68;1.90;;;13.50;83.00;;;;;;5051614;28;20414;-66
2023/03/19 08:30:06;;;;;;;5.75;2.13;;;13.60;81.80;;;;;;5055243;28;20107;-65
2023/03/19 08:32:31;;;;;;;9.15;2.63;;;14.00;82.80;;;;;;5056211;28;20052;-66
2023/03/19 08:34:57;;;;;;;5.25;1.88;;;14.60;77.80;;;;;;5058398;28;20029;-66
2023/03/19 08:37:22;;;;;;;5.07;1.80;;;14.80;78.30;;;;;;5049047;28;20033;-67
2023/03/19 08:39:51;;;;;;;5.13;2.20;;;14.70;77.30;;;;;;5056498;28;20167;-67
2023/03/19 08:42:17;;;;;;;6.32;1.90;;;14.50;77.60;;;;;;5050543;28;20029;-65
2023/03/19 08:44:43;;;;;;;5.40;1.95;;;14.60;78.90;;;;;;5050043;28;20025;-66
2023/03/19 08:47:10;;;;;;;8.07;2.63;;;14.30;78.80;;;;;;5044415;28;20029;-66
2023/03/19 08:49:35;;;;;;;4.43;1.95;;;13.90;79.80;;;;;;5052815;28;20120;-65
2023/03/19 08:52:01;;;;;;;4.63;1.83;;;13.60;80.10;;;;;;5050232;28;20155;-65
2023/03/19 08:54:26;;;;;;;5.15;2.08;;;13.50;82.40;;;;;;5046726;28;20401;-65
2023/03/19 08:56:52;;;;;;;5.05;1.98;;;13.50;81.30;;;;;;5053328;28;20029;-65
2023/03/19 08:59:18;;;;;;;6.40;1.98;;;13.70;82.40;;;;;;5054524;28;20283;-66
2023/03/19 09:01:44;;;;;;;6.85;2.47;;;13.70;81.50;;;;;;5057411;28;20041;-66
2023/03/19 09:04:10;;;;;;;5.55;1.85;;;13.80;80.70;;;;;;5052240;28;20107;-67
2023/03/19 09:06:35;;;;;;;6.53;2.17;;;14.00;80.60;;;;;;5055256;28;20072;-66
2023/03/19 09:09:01;;;;;;;5.45;2.30;;;14.40;79.80;;;;;;5054409;28;20326;-66
2023/03/19 09:11:27;;;;;;;7.10;2.20;;;14.90;77.30;;;;;;5043383;28;20037;-66
2023/03/19 09:13:52;;;;;;;5.55;2.35;;;15.00;74.80;;;;;;5034790;28;20319;-67
2023/03/19 09:16:18;;;;;;;5.57;2.17;;;14.90;74.60;;;;;;5035953;28;20025;-67
2023/03/19 09:18:44;;;;;;;4.55;2.10;;;14.80;75.50;;;;;;5036000;28;20029;-66
2023/03/19 09:21:09;;;;;;;5.00;2.45;;;15.20;74.80;;;;;;5039943;28;20318;-66
2023/03/19 09:23:35;;;;;;;4.97;2.25;;;15.00;75.40;;;;;;5055597;28;20078;-66
2023/03/19 09:26:00;;;;;;;7.65;2.70;;;15.30;75.70;;;;;;5054282;28;20029;-66
2023/03/19 09:28:26;;;;;;;5.40;2.20;;;15.20;72.90;;;;;;5054488;28;20041;-66
2023/03/19 09:30:52;;;;;;;7.15;2.53;;;15.20;73.00;;;;;;5055822;28;20063;-66
2023/03/19 09:33:19;;;;;;;5.28;2.15;;;15.40;73.40;;;;;;5055578;28;20029;-66
2023/03/19 09:35:52;;;;;;;5.05;2.70;;;15.80;72.90;;;;;;5055696;28;20025;-65
2023/03/19 09:38:19;;;;;;;5.50;2.33;;;16.90;72.30;;;;;;5054243;28;20029;-66
2023/03/19 09:40:48;;;;;;;5.75;2.60;;;17.40;69.80;;;;;;5040639;28;20371;-66
2023/03/19 09:43:48;;;;;;;6.05;2.42;;;17.00;69.70;;;;;;5034588;28;20096;-66
2023/03/19 09:46:18;;;;;;;6.43;3.10;;;17.00;70.60;;;;;;5035719;28;20040;-66
2023/03/19 09:48:59;;;;;;;5.68;2.53;;;16.90;69.70;;;;;;5035371;28;20017;-66
2023/03/19 09:51:37;;;;;;;7.28;2.65;;;17.10;69.30;;;;;;5041890;28;20063;-66
2023/03/19 09:54:07;;;;;;;6.95;2.75;;;17.30;68.80;;;;;;5053761;28;20067;-66
2023/03/19 09:56:33;;;;;;;6.75;2.05;;;17.30;70.20;;;;;;5048793;28;20053;-66
2023/03/19 09:58:59;;;;;;;6.07;2.50;;;17.60;68.70;;;;;;5034372;28;20454;-65
2023/03/19 10:01:34;;;;;;;7.70;2.70;;;17.40;67.80;;;;;;5035257;28;20498;-65
2023/03/19 10:04:16;;;;;;;7.32;2.47;;;17.30;67.80;;;;;;5035490;28;20063;-65
2023/03/19 10:06:42;;;;;;;5.80;2.65;;;17.50;69.10;;;;;;5035251;28;20021;-65
2023/03/19 10:09:26;;;;;;;7.53;2.70;;;17.70;67.50;;;;;;5035492;28;20029;-65
2023/03/19 10:12:19;;;;;;;5.47;2.28;;;17.30;67.00;;;;;;5033603;28;20025;-65
2023/03/19 10:15:16;;;;;;;6.55;2.67;;;17.30;68.00;;;;;;5047012;28;20021;-66
2023/03/19 10:18:15;;;;;;;6.65;2.30;;;17.50;66.10;;;;;;5055467;28;20017;-64
2023/03/19 10:20:50;;;;;;;6.25;2.40;;;17.60;67.40;;;;;;5052967;28;20456;-63
2023/03/19 10:23:34;;;;;;;9.70;2.88;;;17.80;65.70;;;;;;5058836;28;20317;-64
2023/03/19 10:26:02;;;;;;;5.65;2.30;;;17.50;66.40;;;;;;5052019;28;20028;-64
2023/03/19 10:28:29;;;;;;;5.03;2.00;;;17.70;65.20;;;;;;5042602;28;20119;-65
2023/03/19 10:31:28;;;;;;;6.30;2.00;;;18.00;64.80;;;;;;5045254;28;20025;-65
2023/03/19 10:34:12;;;;;;;6.00;2.20;;;18.00;64.80;;;;;;5047351;28;20041;-64
2023/03/19 10:36:38;;;;;;;6.15;2.35;;;18.30;64.00;;;;;;5056798;28;20044;-64
2023/03/19 10:39:06;;;;;;;6.13;2.70;;;17.80;64.30;;;;;;5055724;28;20159;-64
2023/03/19 10:42:03;;;;;;;4.95;2.35;;;17.50;65.10;;;;;;5047412;28;20167;-65
2023/03/19 10:44:49;;;;;;;6.93;2.60;;;17.70;65.00;;;;;;5052394;28;20030;-65
2023/03/19 10:47:16;;;;;;;7.85;2.60;;;18.20;63.50;;;;;;5055513;28;20103;-65
2023/03/19 10:49:42;;;;;;;6.22;2.42;;;17.80;64.30;;;;;;5054395;28;20802;-65
2023/03/19 10:52:26;;;;;;;6.78;2.20;;;17.70;64.20;;;;;;5053703;28;20029;-65
2023/03/19 10:54:55;;;;;;;5.00;2.17;;;17.40;66.50;;;;;;5051515;28;20086;-64
2023/03/19 10:57:27;;;;;;;6.22;2.25;;;17.40;66.50;;;;;;5049227;28;20330;-65
2023/03/19 10:59:52;;;;;;;8.07;2.38;;;17.50;66.80;;;;;;5054372;28;20128;-64
2023/03/19 11:02:22;;;;;;;7.78;2.55;;;17.60;66.20;;;;;;5059793;28;20120;-65
2023/03/19 11:05:04;;;;;;;6.88;2.63;;;18.00;65.80;;;;;;5060901;28;20033;-65
2023/03/19 11:07:32;;;;;;;6.43;2.92;;;18.20;65.40;;;;;;5057165;28;20116;-65
2023/03/19 11:09:58;;;;;;;5.47;2.35;;;18.80;64.20;;;;;;5052894;28;20318;-65
2023/03/19 11:12:36;;;;;;;5.03;2.03;;;18.30;64.50;;;;;;5046709;28;20035;-65
2023/03/19 11:15:04;;;;;;;5.60;2.30;;;17.90;65.70;;;;;;5048741;28;20029;-65
2023/03/19 11:17:44;;;;;;;6.55;2.30;;;18.00;65.80;;;;;;5057392;28;20314;-65
2023/03/19 11:20:19;;;;;;;6.57;2.38;;;17.40;66.10;;;;;;5052392;28;20022;-65
2023/03/19 11:22:45;;;;;;;6.30;2.33;;;17.10;68.50;;;;;;5036957;28;20026;-65
2023/03/19 11:25:26;;;;;;;6.32;2.33;;;16.70;67.50;;;;;;5044852;28;20036;-65
2023/03/19 11:28:31;;;;;;;6.32;2.40;;;16.20;68.70;;;;;;5054243;28;20025;-65
2023/03/19 11:31:03;;;;;;;8.10;2.28;;;16.10;69.50;;;;;;5043551;28;20069;-64
2023/03/19 11:34:00;;;;;;;5.60;2.70;;;16.50;69.10;;;;;;5056676;28;20073;-65
2023/03/19 11:36:48;;;;;;;5.50;2.15;;;17.20;68.00;;;;;;5055855;28;20029;-65
2023/03/19 11:39:29;;;;;;;6.72;3.50;;;17.70;66.50;;;;;;5042538;28;20512;-65
2023/03/19 11:42:18;;;;;;;8.82;4.55;;;17.60;66.40;;;;;;5055782;28;20025;-64
2023/03/19 11:44:56;;;;;;;7.63;3.40;;;17.20;66.80;;;;;;5016783;28;20112;-65
2023/03/19 11:47:57;;;;;;;8.60;2.70;;;17.20;66.70;;;;;;5059613;28;20109;-65
2023/03/19 11:50:50;;;;;;;7.93;2.58;;;16.80;68.30;;;;;;5057169;28;20116;-65
2023/03/19 11:53:18;;;;;;;6.32;2.58;;;16.60;69.10;;;;;;5046160;28;20078;-64
2023/03/19 11:55:58;;;;;;;6.63;2.33;;;17.10;67.60;;;;;;5057092;28;20407;-64
2023/03/19 11:58:57;;;;;;;7.68;2.17;;;17.60;65.70;;;;;;5055785;28;20097;-64
2023/03/19 12:01:52;;;;;;;6.10;2.45;;;17.30;66.50;;;;;;5056731;28;20041;-64
2023/03/19 12:04:44;;;;;;;7.57;2.25;;;17.50;67.20;;;;;;5056541;28;20108;-64
2023/03/19 12:07:16;;;;;;;5.10;2.20;;;17.40;67.60;;;;;;5018054;28;20064;-65
2023/03/19 12:10:19;;;;;;;6.93;2.45;;;17.20;67.30;;;;;;5053008;28;20035;-63
2023/03/19 12:13:12;;;;;;;4.70;1.88;;;17.50;67.00;;;;;;4958868;28;20039;-62
2023/03/19 12:16:04;;;;;;;8.98;2.60;;;17.40;66.80;;;;;;5063794;28;20303;-64
2023/03/19 12:18:47;;;;;;;5.68;2.20;;;17.00;67.50;;;;;;5056895;28;20029;-64
2023/03/19 12:21:40;;;;;;;4.88;2.25;;;16.80;68.10;;;;;;5056430;28;20449;-64
2023/03/19 12:24:24;;;;;;;6.32;2.35;;;16.30;69.00;;;;;;5055233;28;20044;-64
2023/03/19 12:27:19;;;;;;;6.53;2.13;;;16.20;69.90;;;;;;5040585;28;20503;-64
2023/03/19 12:30:02;;;;;;;;;;;16.20;69.40;;;;;;5056422;28;20278;-64
2023/03/19 12:32:49;;;;;;;5.55;2.63;;;16.10;70.00;;;;;;5056529;28;19904;-64
2023/03/19 12:35:17;;;;;;;7.15;2.30;;;16.00;70.70;;;;;;5056556;28;20362;-64
2023/03/19 12:38:09;;;;;;;9.43;2.75;;;16.10;69.70;;;;;;5056040;28;20021;-64
2023/03/19 12:40:42;;;;;;;6.18;2.40;;;15.90;70.80;;;;;;5054477;28;20029;-63
2023/03/19 12:43:35;;;;;;;10.30;2.80;;;16.00;71.10;;;;;;5053384;28;20382;-63
2023/03/19 12:46:13;;;;;;;8.25;2.90;;;16.20;70.00;;;;;;5020973;28;20053;-64
2023/03/19 12:49:19;;;;;;;6.78;2.78;;;16.10;70.70;;;;;;5057094;28;20021;-64
2023/03/19 12:52:12;;;;;;;7.43;2.70;;;16.00;71.30;;;;;;5053030;28;20435;-63
2023/03/19 12:54:59;;;;;;;9.30;2.55;;;16.20;70.70;;;;;;5033397;28;20037;-63
2023/03/19 12:57:52;;;;;;;4.78;2.33;;;16.10;70.50;;;;;;5054505;28;20021;-64
2023/03/19 13:00:42;;;;;;;9.68;2.67;;;15.60;71.60;;;;;;5049179;28;20074;-64
2023/03/19 13:03:13;;;;;;;7.13;3.10;;;15.30;72.20;;;;;;5055981;28;20025;-64
2023/03/19 13:05:50;;;;;;;6.18;2.70;;;15.20;73.30;;;;;;5056152;28;20160;-64
2023/03/19 13:08:32;;;;;;;7.70;2.50;;;15.20;73.60;;;;;;5058053;28;20313;-64